Terminal Aerodrome Forecast
Issued by NWS Cleveland, OH

Home | Current Version | Previous Version | Text Only | Print | Product List | Glossary On
Versions: 1 2 3 4 5 6 7 8 9 10 11 12 13 14 15 16 17 18 19 20 21 22 23 24 25 26
000
FTUS41 KCLE 021700
TAFCAK
TAF
KCAK 021733Z 0218/0318 16008KT P6SM FEW100 SCT200
     FM031400 16012KT P6SM VCSH BKN050 OVC100
     FM031600 18015G25KT 5SM -SHRA BR SCT025 OVC035 PROB30 0317/0318
      5SM -TSRA BR BKN025CB OVC050=

USA.gov is the U.S. government's official web portal to all federal, state and local government web resources and services.